Time;durP1;ratioP1;P1;durP2;ratioP2;P2;SDS_P1;SDS_P2;PMS_P1;PMS_P2;Temp;Humidity;BMP_temperature;BMP_pressure;BME280_temperature;BME280_humidity;BME280_pressure;Samples;Min_cycle;Max_cycle;Signal;HPM_P1;HPM_P2
2021/06/03 00:02:00;;;;;;;6.40;4.35;;;;;;;19.76;69.51;101355.50;4989684;28;20037;-73
2021/06/03 00:04:26;;;;;;;8.00;4.15;;;;;;;19.99;69.86;101359.69;5005271;28;20026;-73
2021/06/03 00:06:51;;;;;;;7.28;4.65;;;;;;;19.78;69.38;101361.34;4982053;28;20528;-73
2021/06/03 00:09:18;;;;;;;9.25;4.57;;;;;;;20.02;69.12;101356.13;4989280;28;20399;-73
2021/06/03 00:11:44;;;;;;;6.80;3.92;;;;;;;20.20;68.66;101371.28;4976924;28;20093;-73
2021/06/03 00:14:10;;;;;;;6.18;4.25;;;;;;;20.28;68.01;101363.78;4990917;28;20125;-73
2021/06/03 00:16:36;;;;;;;9.73;4.28;;;;;;;20.29;67.61;101362.59;4991323;28;20399;-73
2021/06/03 00:19:04;;;;;;;5.50;4.22;;;;;;;20.19;67.93;101366.97;4992025;28;20018;-73
2021/06/03 00:21:30;;;;;;;9.45;4.63;;;;;;;19.97;69.16;101365.56;4983891;28;20101;-73
2021/06/03 00:23:56;;;;;;;5.93;4.55;;;;;;;20.01;69.16;101363.59;4986503;28;20038;-73
2021/06/03 00:26:22;;;;;;;6.07;4.65;;;;;;;20.04;69.24;101359.25;4980767;28;20022;-73
2021/06/03 00:28:47;;;;;;;6.93;4.50;;;;;;;20.05;69.14;101358.09;4986907;28;20062;-74
2021/06/03 00:31:13;;;;;;;5.15;4.35;;;;;;;20.14;68.70;101367.38;4990192;28;20034;-73
2021/06/03 00:33:39;;;;;;;6.80;4.22;;;;;;;20.03;68.88;101363.97;4980787;28;20058;-73
2021/06/03 00:36:04;;;;;;;9.25;4.32;;;;;;;20.07;68.77;101361.19;4979398;28;20640;-74
2021/06/03 00:38:30;;;;;;;7.55;4.40;;;;;;;20.02;69.35;101353.41;4991151;28;20065;-73
2021/06/03 00:40:56;;;;;;;5.85;3.92;;;;;;;20.01;69.00;101360.06;4989677;28;20471;-73
2021/06/03 00:43:21;;;;;;;7.30;4.43;;;;;;;19.92;69.89;101359.75;4986851;28;20514;-73
2021/06/03 00:45:47;;;;;;;5.22;4.10;;;;;;;19.70;70.27;101354.38;4983082;28;20034;-73
2021/06/03 00:48:12;;;;;;;5.82;4.18;;;;;;;19.78;70.62;101357.88;4990460;28;20030;-73
2021/06/03 00:50:42;;;;;;;6.38;4.35;;;;;;;19.76;70.45;101358.25;4991838;28;20030;-73
2021/06/03 00:53:12;;;;;;;8.02;4.47;;;;;;;19.53;71.44;101360.72;4978616;28;20502;-73
2021/06/03 00:55:42;;;;;;;6.50;4.65;;;;;;;19.58;71.08;101363.06;4983338;28;20030;-73
2021/06/03 00:58:12;;;;;;;6.40;4.43;;;;;;;19.66;71.61;101361.06;4980283;28;20086;-73
2021/06/03 01:00:38;;;;;;;9.55;4.53;;;;;;;19.49;72.46;101365.41;4989201;28;20030;-73
2021/06/03 01:03:08;;;;;;;8.55;4.47;;;;;;;19.60;71.34;101363.44;4990316;28;20038;-73
2021/06/03 01:05:47;;;;;;;5.85;4.40;;;;;;;19.61;71.11;101364.97;4988763;28;20034;-73
2021/06/03 01:08:17;;;;;;;8.13;4.55;;;;;;;19.64;71.37;101363.41;4990484;28;20035;-73
2021/06/03 01:10:51;;;;;;;6.68;4.50;;;;;;;19.64;70.86;101361.47;4974009;28;20495;-74
2021/06/03 01:13:33;;;;;;;6.45;4.63;;;;;;;19.60;71.09;101363.44;4989509;28;20038;-73
2021/06/03 01:16:02;;;;;;;5.68;4.53;;;;;;;19.52;71.49;101358.38;4990911;28;20100;-74
2021/06/03 01:18:34;;;;;;;5.63;4.50;;;;;;;19.51;71.75;101356.84;4989265;28;20719;-74
2021/06/03 01:21:04;;;;;;;8.48;4.43;;;;;;;19.45;72.10;101359.19;4990759;28;20038;-73
2021/06/03 01:23:48;;;;;;;5.68;4.45;;;;;;;19.58;71.34;101359.53;4979332;28;20558;-73
2021/06/03 01:26:16;;;;;;;6.63;4.22;;;;;;;19.47;71.55;101351.38;4984104;28;20030;-73
2021/06/03 01:28:42;;;;;;;7.88;4.90;;;;;;;19.48;71.90;101357.63;4983622;28;20030;-74
2021/06/03 01:31:08;;;;;;;4.90;4.07;;;;;;;19.39;72.04;101357.28;4985361;28;20060;-73
2021/06/03 01:33:38;;;;;;;8.57;5.05;;;;;;;19.32;72.26;101358.09;4983360;28;20114;-73
2021/06/03 01:36:08;;;;;;;6.30;4.80;;;;;;;19.36;71.98;101353.38;4978161;28;20031;-73
2021/06/03 01:38:37;;;;;;;5.78;4.40;;;;;;;19.22;72.17;101350.66;4980763;28;20038;-73
2021/06/03 01:41:06;;;;;;;5.85;4.45;;;;;;;19.35;72.40;101351.06;4981399;28;20023;-73
2021/06/03 01:43:34;;;;;;;6.28;4.60;;;;;;;19.39;71.58;101351.81;4981247;28;20030;-73
2021/06/03 01:46:00;;;;;;;6.65;4.97;;;;;;;19.27;71.67;101347.53;4990780;28;20038;-73
2021/06/03 01:48:27;;;;;;;5.50;4.60;;;;;;;19.14;73.00;101351.91;5004566;28;20108;-73
2021/06/03 01:50:56;;;;;;;7.22;5.13;;;;;;;19.16;72.99;101352.28;4990484;28;20088;-73
2021/06/03 01:53:23;;;;;;;7.05;4.72;;;;;;;19.23;73.01;101351.47;4974453;28;20478;-73
2021/06/03 01:55:50;;;;;;;8.07;4.53;;;;;;;19.38;72.11;101347.50;4987101;28;20030;-73
2021/06/03 01:58:17;;;;;;;8.38;4.85;;;;;;;19.19;72.56;101351.47;4989625;28;20029;-73
2021/06/03 02:00:44;;;;;;;6.47;4.45;;;;;;;19.09;72.98;101352.28;4988486;28;20054;-73
2021/06/03 02:03:11;;;;;;;7.03;4.88;;;;;;;19.08;72.82;101350.75;4989223;28;20052;-73
2021/06/03 02:05:36;;;;;;;7.72;4.90;;;;;;;19.21;72.51;101348.34;4984098;28;20030;-73
2021/06/03 02:08:02;;;;;;;8.98;4.88;;;;;;;19.29;72.05;101358.06;4983270;28;20421;-73
2021/06/03 02:10:36;;;;;;;8.05;5.13;;;;;;;19.28;71.65;101351.81;4983960;28;20049;-73
2021/06/03 02:13:06;;;;;;;6.07;4.72;;;;;;;19.31;72.04;101348.31;4982717;28;20034;-73
2021/06/03 02:15:40;;;;;;;6.47;4.68;;;;;;;19.24;72.40;101353.03;4988838;28;20049;-73
2021/06/03 02:18:10;;;;;;;8.00;4.55;;;;;;;19.26;72.18;101356.16;4989892;28;20097;-73
2021/06/03 02:20:41;;;;;;;8.23;5.20;;;;;;;19.21;72.21;101360.06;4985533;28;20042;-73
2021/06/03 02:23:14;;;;;;;7.38;5.28;;;;;;;19.15;73.00;101349.91;4983856;28;20518;-73
2021/06/03 02:25:42;;;;;;;6.80;4.97;;;;;;;19.01;73.53;101350.75;4990048;28;20033;-74
2021/06/03 02:28:12;;;;;;;10.93;5.15;;;;;;;19.01;73.84;101352.72;4980379;28;20042;-73
2021/06/03 02:30:39;;;;;;;6.93;5.13;;;;;;;19.04;73.67;101351.91;4985955;28;20121;-73
2021/06/03 02:33:05;;;;;;;7.18;4.75;;;;;;;19.15;73.34;101345.25;4988227;28;20034;-73
2021/06/03 02:35:32;;;;;;;7.50;4.78;;;;;;;19.03;73.43;101353.09;4988556;28;20077;-73
2021/06/03 02:37:58;;;;;;;6.72;4.88;;;;;;;19.04;73.79;101344.50;4990520;28;20114;-73
2021/06/03 02:40:27;;;;;;;9.00;4.82;;;;;;;19.14;73.25;101343.69;4987251;28;20034;-73
2021/06/03 02:42:55;;;;;;;7.88;5.50;;;;;;;18.96;73.63;101353.88;4987958;28;20030;-73
2021/06/03 02:45:27;;;;;;;6.47;4.80;;;;;;;18.95;74.04;101344.13;4985578;28;20438;-73
2021/06/03 02:47:55;;;;;;;7.45;5.18;;;;;;;18.95;74.10;101351.56;4983880;28;20450;-73
2021/06/03 02:50:24;;;;;;;5.90;4.68;;;;;;;19.05;73.45;101350.75;4991548;28;20030;-73
2021/06/03 02:52:53;;;;;;;7.05;5.22;;;;;;;18.99;74.08;101355.81;4991784;28;20030;-73
2021/06/03 02:55:21;;;;;;;8.10;5.03;;;;;;;18.85;74.19;101348.44;4993455;28;20427;-73
2021/06/03 02:57:51;;;;;;;6.85;4.97;;;;;;;18.95;74.23;101346.09;4983610;28;20039;-73
2021/06/03 03:00:31;;;;;;;10.63;5.60;;;;;;;18.74;75.02;101352.38;4980378;28;20085;-73
2021/06/03 03:02:59;;;;;;;7.78;5.28;;;;;;;18.86;75.12;101357.41;4989844;28;20505;-73
2021/06/03 03:05:25;;;;;;;8.07;5.13;;;;;;;19.01;74.29;101356.19;4981294;28;20125;-73
2021/06/03 03:07:50;;;;;;;7.60;4.90;;;;;;;19.04;73.77;101354.66;4994125;28;20368;-73
2021/06/03 03:10:19;;;;;;;7.30;5.60;;;;;;;19.05;74.13;101362.44;4979508;28;20033;-73
2021/06/03 03:12:47;;;;;;;9.60;5.35;;;;;;;18.99;73.83;101357.78;4989792;28;20027;-73
2021/06/03 03:15:14;;;;;;;7.47;5.13;;;;;;;18.92;74.39;101355.84;4983875;28;20092;-73
2021/06/03 03:17:41;;;;;;;7.25;5.45;;;;;;;19.03;73.87;101359.31;4991371;28;20117;-73
2021/06/03 03:20:11;;;;;;;6.72;5.00;;;;;;;18.83;74.48;101369.13;4991778;28;20049;-73
2021/06/03 03:22:40;;;;;;;6.82;5.00;;;;;;;18.88;74.59;101374.19;4991290;28;20030;-73
2021/06/03 03:25:08;;;;;;;7.15;5.35;;;;;;;18.90;74.25;101366.38;4983641;28;20034;-73
2021/06/03 03:27:35;;;;;;;7.22;5.35;;;;;;;18.76;74.70;101371.84;4991977;28;20014;-73
2021/06/03 03:30:04;;;;;;;9.52;5.15;;;;;;;18.80;74.44;101375.38;4978838;28;20109;-73
2021/06/03 03:32:30;;;;;;;8.75;5.53;;;;;;;18.67;75.29;101380.47;4983660;28;20058;-73
2021/06/03 03:34:58;;;;;;;10.60;5.53;;;;;;;18.73;74.84;101376.19;4987058;28;20178;-74
2021/06/03 03:37:25;;;;;;;7.80;5.30;;;;;;;18.86;74.90;101371.06;4978125;28;20126;-73
2021/06/03 03:39:51;;;;;;;6.22;5.53;;;;;;;18.58;75.62;101376.56;4979987;28;20113;-73
2021/06/03 03:42:17;;;;;;;8.32;5.43;;;;;;;18.60;75.90;101375.00;4995951;28;20472;-73
2021/06/03 03:44:43;;;;;;;5.40;4.57;;;;;;;18.72;75.49;101377.31;4980644;28;20113;-74
2021/06/03 03:47:10;;;;;;;7.47;4.82;;;;;;;18.82;75.01;101373.81;4976356;28;20027;-74
2021/06/03 03:49:36;;;;;;;8.32;5.88;;;;;;;18.89;74.80;101373.78;4994136;28;20039;-74
2021/06/03 03:52:03;;;;;;;7.00;5.18;;;;;;;18.71;75.23;101378.50;4990798;28;20034;-73
2021/06/03 03:54:30;;;;;;;8.25;5.30;;;;;;;18.85;75.39;101372.25;4985030;28;20124;-73
2021/06/03 03:56:57;;;;;;;6.68;5.13;;;;;;;18.84;75.13;101376.13;4987231;28;20035;-73
2021/06/03 03:59:23;;;;;;;8.32;5.22;;;;;;;18.68;75.46;101376.56;4982351;28;20038;-73
2021/06/03 04:01:53;;;;;;;6.63;5.45;;;;;;;18.88;74.72;101374.19;4982516;28;20768;-73
2021/06/03 04:04:23;;;;;;;6.57;4.90;;;;;;;18.88;75.03;101380.44;4986660;28;20438;-73
2021/06/03 04:06:51;;;;;;;7.15;5.60;;;;;;;18.75;75.55;101384.75;4982710;28;20031;-73
2021/06/03 04:09:17;;;;;;;12.38;5.25;;;;;;;18.91;75.46;101385.09;4983108;28;20601;-73
2021/06/03 04:11:47;;;;;;;7.47;5.40;;;;;;;19.02;74.79;101381.56;4985737;28;20068;-73
2021/06/03 04:14:14;;;;;;;9.10;5.13;;;;;;;19.18;74.39;101379.94;4991134;28;20048;-73
2021/06/03 04:16:40;;;;;;;7.75;5.10;;;;;;;19.31;73.56;101388.50;4988904;28;20419;-73
2021/06/03 04:19:08;;;;;;;6.45;4.93;;;;;;;19.26;72.90;101381.47;4987753;28;21027;-73
2021/06/03 04:21:36;;;;;;;8.93;5.35;;;;;;;19.38;72.74;101372.91;4985952;28;20038;-73
2021/06/03 04:24:02;;;;;;;11.25;5.63;;;;;;;19.31;72.58;101388.50;4982730;28;20040;-73
2021/06/03 04:26:28;;;;;;;6.93;4.95;;;;;;;19.30;73.37;101382.25;4981990;28;20023;-73
2021/06/03 04:28:55;;;;;;;8.60;5.25;;;;;;;19.18;73.34;101384.66;4979829;28;20041;-73
2021/06/03 04:31:20;;;;;;;6.93;5.18;;;;;;;19.27;73.93;101390.47;4978546;28;20117;-73
2021/06/03 04:33:46;;;;;;;5.88;4.95;;;;;;;19.23;73.83;101392.44;4973788;28;20035;-73
2021/06/03 04:36:12;;;;;;;8.05;5.20;;;;;;;18.99;74.03;101396.03;4977822;28;20398;-73
2021/06/03 04:38:37;;;;;;;6.38;4.95;;;;;;;18.91;75.05;101389.78;4986817;28;20041;-73
2021/06/03 04:41:03;;;;;;;9.75;4.93;;;;;;;19.18;74.07;101390.13;4978648;28;20089;-74
2021/06/03 04:43:28;;;;;;;6.82;5.03;;;;;;;19.28;73.79;101398.25;4977528;28;20035;-74
2021/06/03 04:45:54;;;;;;;9.82;5.55;;;;;;;19.29;73.08;101397.09;4973398;28;20027;-72
2021/06/03 04:48:20;;;;;;;9.85;5.80;;;;;;;19.31;73.73;101399.44;4976748;28;20122;-73
2021/06/03 04:50:47;;;;;;;7.38;5.20;;;;;;;19.30;73.14;101395.91;4955628;28;20047;-73
2021/06/03 04:53:17;;;;;;;5.95;5.13;;;;;;;19.32;73.61;101385.41;4981342;28;20061;-74
2021/06/03 04:55:43;;;;;;;6.32;5.25;;;;;;;19.10;73.93;101396.75;5011531;23;20048;-72
2021/06/03 04:58:08;;;;;;;10.32;5.40;;;;;;;19.11;74.75;101396.38;5002919;28;20033;-72
2021/06/03 05:00:36;;;;;;;7.43;5.22;;;;;;;19.34;73.82;101401.38;4999058;28;20126;-72
2021/06/03 05:03:03;;;;;;;6.05;4.70;;;;;;;19.12;73.90;101400.66;5000619;28;20044;-72
2021/06/03 05:05:29;;;;;;;10.93;5.70;;;;;;;19.22;73.77;101399.09;4992423;28;20366;-72
2021/06/03 05:07:55;;;;;;;8.95;4.72;;;;;;;19.06;74.60;101407.69;4980116;28;20042;-72
2021/06/03 05:10:22;;;;;;;6.63;4.82;;;;;;;19.20;74.33;101407.66;4985606;28;20030;-72
2021/06/03 05:12:48;;;;;;;7.25;5.10;;;;;;;19.54;73.92;101407.97;4991134;28;20085;-72
2021/06/03 05:15:18;;;;;;;6.93;5.00;;;;;;;19.68;72.73;101405.16;4989334;28;20038;-72
2021/06/03 05:17:45;;;;;;;6.97;4.80;;;;;;;19.72;72.49;101417.63;4990302;28;20062;-72
2021/06/03 05:20:13;;;;;;;7.30;5.15;;;;;;;19.84;71.69;101404.72;4985679;28;20030;-72
2021/06/03 05:22:40;;;;;;;5.90;4.90;;;;;;;20.03;70.26;101409.66;4985787;28;20034;-72
2021/06/03 05:25:12;;;;;;;9.23;5.07;;;;;;;20.01;69.79;101414.75;4988963;28;20046;-72
2021/06/03 05:27:38;;;;;;;;;;;;;;;19.52;70.35;101407.59;4979047;28;20034;-73
2021/06/03 05:30:06;;;;;;;6.50;4.80;;;;;;;19.84;71.30;101415.66;4988535;28;19913;-72
2021/06/03 05:32:33;;;;;;;6.65;5.10;;;;;;;20.00;70.22;101413.19;4985410;28;20029;-73
2021/06/03 05:34:59;;;;;;;6.85;5.18;;;;;;;20.09;70.68;101422.50;4981459;28;20096;-73
2021/06/03 05:37:25;;;;;;;9.27;5.03;;;;;;;20.32;69.44;101419.28;4980046;28;20027;-73
2021/06/03 05:39:50;;;;;;;7.90;5.00;;;;;;;20.26;70.64;101427.13;4982922;28;20061;-73
2021/06/03 05:42:18;;;;;;;8.80;5.18;;;;;;;20.36;70.13;101422.75;4988187;28;20042;-73
2021/06/03 05:44:43;;;;;;;6.72;5.18;;;;;;;20.30;70.05;101435.31;4985942;28;20113;-73
2021/06/03 05:47:09;;;;;;;8.90;5.10;;;;;;;20.42;69.20;101432.09;4987543;28;20122;-73
2021/06/03 05:49:34;;;;;;;15.68;5.72;;;;;;;20.08;69.79;101433.84;4988074;28;20042;-72
2021/06/03 05:52:02;;;;;;;11.15;5.80;;;;;;;20.14;70.92;101438.50;4986735;28;20046;-73
2021/06/03 05:54:29;;;;;;;8.30;5.18;;;;;;;20.45;70.39;101443.03;4979955;28;20026;-73
2021/06/03 05:56:55;;;;;;;7.60;4.78;;;;;;;20.44;68.76;101437.97;4989138;28;20042;-72
2021/06/03 05:59:20;;;;;;;8.18;4.97;;;;;;;20.68;68.60;101423.28;4983852;28;20046;-72
2021/06/03 06:01:46;;;;;;;6.80;5.10;;;;;;;20.87;68.94;101422.72;4986942;28;20081;-72
2021/06/03 06:06:49;;;;;;;6.68;5.07;;;;;;;21.17;67.17;101425.59;4984806;28;20419;-71
2021/06/03 06:09:14;;;;;;;6.78;4.90;;;;;;;21.17;66.89;101430.28;4985852;28;20030;-71
2021/06/03 06:11:42;;;;;;;7.10;4.85;;;;;;;21.10;68.45;101431.13;4983730;28;20062;-69
2021/06/03 06:14:07;;;;;;;6.55;5.30;;;;;;;21.03;67.27;101436.69;4986620;28;20050;-69
2021/06/03 06:16:34;;;;;;;8.50;5.13;;;;;;;20.82;69.93;101439.59;4988863;28;20080;-69
2021/06/03 06:19:01;;;;;;;6.70;5.38;;;;;;;20.90;68.52;101438.34;4989335;28;20057;-69
2021/06/03 06:21:28;;;;;;;10.90;5.30;;;;;;;21.05;68.73;101442.53;4987345;28;20037;-69
2021/06/03 06:23:55;;;;;;;7.32;5.00;;;;;;;21.12;68.12;101438.94;4990239;28;20022;-72
2021/06/03 06:26:22;;;;;;;7.28;4.80;;;;;;;21.24;69.25;101446.63;4990209;28;20034;-72
2021/06/03 06:28:48;;;;;;;8.65;4.93;;;;;;;21.43;67.34;101446.81;4990208;28;20027;-71
2021/06/03 06:31:15;;;;;;;6.82;5.15;;;;;;;21.20;66.79;101454.13;4991506;28;20041;-70
2021/06/03 06:33:41;;;;;;;6.32;4.97;;;;;;;21.31;66.31;101452.06;4992972;28;20038;-72
2021/06/03 06:36:07;;;;;;;6.60;5.30;;;;;;;20.99;67.55;101446.06;4989390;28;20037;-71
2021/06/03 06:38:34;;;;;;;12.10;5.30;;;;;;;20.97;68.23;101456.66;4993161;28;20038;-71
2021/06/03 06:40:59;;;;;;;6.80;4.95;;;;;;;21.20;69.11;101448.63;4989746;28;20033;-71
2021/06/03 06:43:25;;;;;;;10.52;5.55;;;;;;;21.47;67.46;101446.78;4989855;28;20031;-71
2021/06/03 06:45:50;;;;;;;8.32;5.47;;;;;;;21.54;67.29;101446.72;4991254;28;20030;-71
2021/06/03 06:48:16;;;;;;;7.35;5.15;;;;;;;21.68;66.59;101454.75;4981988;28;20031;-72
2021/06/03 06:50:44;;;;;;;8.63;4.97;;;;;;;21.50;67.27;101449.47;4988501;28;20044;-71
2021/06/03 06:53:10;;;;;;;9.70;5.65;;;;;;;21.70;66.28;101446.88;4986951;28;20049;-72
2021/06/03 06:55:36;;;;;;;11.13;5.30;;;;;;;21.67;67.13;101453.19;4990645;28;20039;-71
2021/06/03 06:58:03;;;;;;;6.78;5.00;;;;;;;21.50;66.35;101460.44;4988292;28;20129;-71
2021/06/03 07:00:33;;;;;;;7.15;4.97;;;;;;;21.79;66.05;101458.16;4992018;28;20390;-71
2021/06/03 07:02:58;;;;;;;5.93;5.00;;;;;;;21.84;66.96;101465.94;4986437;28;20042;-72
2021/06/03 07:05:24;;;;;;;11.38;5.43;;;;;;;21.76;66.62;101467.19;4991246;28;20391;-72
2021/06/03 07:07:50;;;;;;;6.25;5.15;;;;;;;21.32;66.94;101470.03;4992568;28;20045;-72
2021/06/03 07:10:16;;;;;;;12.45;5.75;;;;;;;21.77;67.02;101476.19;4991234;28;20068;-73
2021/06/03 07:12:43;;;;;;;8.25;5.22;;;;;;;22.00;67.24;101474.38;4985080;28;20026;-73
2021/06/03 07:15:11;;;;;;;7.32;5.25;;;;;;;21.76;65.60;101475.41;4984598;28;20035;-73
2021/06/03 07:17:37;;;;;;;8.25;5.03;;;;;;;21.95;66.43;101472.06;4990668;28;20026;-73
2021/06/03 07:20:24;;;;;;;8.82;5.63;;;;;;;21.64;65.73;101483.41;4990838;28;20081;-73
2021/06/03 07:22:55;;;;;;;7.55;4.97;;;;;;;22.08;66.67;101472.28;4936839;29;20055;-73
2021/06/03 07:25:23;;;;;;;6.45;4.78;;;;;;;22.29;66.39;101485.72;4934820;29;20078;-73
2021/06/03 07:27:50;;;;;;;7.40;4.90;;;;;;;22.59;65.24;101476.69;4950854;28;20049;-73
2021/06/03 07:30:19;;;;;;;7.50;5.38;;;;;;;22.54;64.47;101472.41;4949084;28;20043;-73
2021/06/03 07:32:44;;;;;;;6.82;4.80;;;;;;;22.78;65.66;101485.00;4951068;28;20130;-73
2021/06/03 07:35:16;;;;;;;5.57;4.72;;;;;;;23.08;64.56;101481.34;4943210;28;20131;-73
2021/06/03 07:37:44;;;;;;;7.78;4.93;;;;;;;23.20;64.05;101477.97;4947456;29;20039;-73
2021/06/03 07:40:11;;;;;;;9.77;5.07;;;;;;;22.98;62.08;101474.81;4948609;29;20454;-73
2021/06/03 07:42:38;;;;;;;6.35;4.70;;;;;;;23.19;64.14;101477.19;4943548;29;20090;-73
2021/06/03 07:45:07;;;;;;;8.75;5.05;;;;;;;22.57;64.74;101485.31;4930326;28;20082;-73
2021/06/03 07:47:32;;;;;;;8.75;5.22;;;;;;;22.83;65.46;101476.28;4941158;29;20126;-73
2021/06/03 07:49:58;;;;;;;5.82;4.70;;;;;;;23.22;64.43;101481.09;4947412;28;20567;-73
2021/06/03 07:52:23;;;;;;;9.30;4.68;;;;;;;23.47;61.73;101477.88;4943968;28;20118;-71
2021/06/03 07:54:49;;;;;;;7.43;4.85;;;;;;;23.76;59.35;101476.13;4945495;28;20440;-70
2021/06/03 07:57:14;;;;;;;8.00;4.95;;;;;;;23.90;60.63;101478.59;4949171;28;20046;-73
2021/06/03 07:59:40;;;;;;;11.30;5.07;;;;;;;24.41;59.12;101460.56;4957859;28;20046;-72
2021/06/03 08:02:06;;;;;;;7.10;4.80;;;;;;;24.30;57.81;101460.81;4985719;28;20113;-73
2021/06/03 08:04:31;;;;;;;7.05;4.80;;;;;;;24.26;57.57;101465.63;4989708;28;20046;-72
2021/06/03 08:06:57;;;;;;;6.65;4.70;;;;;;;24.13;57.49;101473.00;4987415;28;20041;-71
2021/06/03 08:09:22;;;;;;;8.75;4.68;;;;;;;24.15;59.79;101465.88;4986147;28;20387;-73
2021/06/03 08:11:47;;;;;;;7.20;5.25;;;;;;;24.42;59.27;101464.84;4986195;28;20046;-72
2021/06/03 08:14:13;;;;;;;6.90;5.45;;;;;;;24.17;58.31;101479.22;4990040;28;20065;-73
2021/06/03 08:16:39;;;;;;;7.93;4.97;;;;;;;24.24;60.43;101462.50;4984312;28;20063;-73
2021/06/03 08:19:05;;;;;;;7.50;4.45;;;;;;;24.26;59.15;101471.13;4989773;28;20041;-73
2021/06/03 08:21:31;;;;;;;8.07;4.60;;;;;;;24.54;60.29;101461.44;4988142;28;20028;-73
2021/06/03 08:23:56;;;;;;;6.85;4.45;;;;;;;24.73;58.30;101472.41;4985663;28;20042;-73
2021/06/03 08:26:24;;;;;;;6.50;4.25;;;;;;;24.87;60.01;101466.50;4986904;28;20035;-73
2021/06/03 08:28:50;;;;;;;8.32;4.70;;;;;;;24.87;58.54;101477.53;4989115;28;20072;-73
2021/06/03 08:31:16;;;;;;;6.18;4.65;;;;;;;24.79;58.25;101470.66;4986233;28;20065;-73
2021/06/03 08:33:41;;;;;;;9.13;4.75;;;;;;;25.03;59.14;101462.94;4989639;28;20058;-73
2021/06/03 08:36:07;;;;;;;6.55;4.72;;;;;;;25.44;58.92;101456.75;4986994;28;20113;-73
2021/06/03 08:38:32;;;;;;;6.82;4.75;;;;;;;25.19;57.64;101468.44;4990530;28;20093;-73
2021/06/03 08:40:59;;;;;;;8.52;4.50;;;;;;;25.31;56.79;101469.69;4986452;28;20403;-73
2021/06/03 08:43:31;;;;;;;9.68;4.68;;;;;;;25.30;55.69;101470.91;4986453;28;20023;-73
2021/06/03 08:45:58;;;;;;;6.18;4.28;;;;;;;25.57;56.17;101465.84;4988534;28;20060;-73
2021/06/03 08:48:24;;;;;;;7.90;4.20;;;;;;;25.60;55.79;101463.00;4988576;28;20045;-73
2021/06/03 08:50:55;;;;;;;5.82;4.43;;;;;;;25.71;56.12;101473.72;4988160;28;20042;-73
2021/06/03 08:53:21;;;;;;;;;;;;;;;25.57;55.12;101471.38;4986688;28;20070;-74
2021/06/03 08:58:33;;;;;;;7.63;4.63;;;;;;;25.57;54.47;101468.63;4984083;28;20038;-73
2021/06/03 09:01:00;;;;;;;6.90;4.28;;;;;;;25.25;56.25;101471.44;4978749;28;20059;-73
2021/06/03 09:03:28;;;;;;;11.35;4.88;;;;;;;25.42;56.06;101473.75;4983894;28;20030;-73
2021/06/03 09:05:54;;;;;;;6.93;4.55;;;;;;;25.00;56.67;101467.38;4987429;28;20092;-73
2021/06/03 09:08:40;;;;;;;7.22;4.45;;;;;;;25.10;58.26;101476.56;4989617;28;20494;-73
2021/06/03 09:11:11;;;;;;;8.70;4.60;;;;;;;25.23;57.41;101476.63;4988497;28;20077;-73
2021/06/03 09:13:42;;;;;;;8.77;4.80;;;;;;;25.38;57.96;101466.72;4989200;28;20069;-73
2021/06/03 09:16:10;;;;;;;9.20;4.93;;;;;;;25.63;56.45;101472.38;4986194;28;20026;-73
2021/06/03 09:18:41;;;;;;;11.55;4.78;;;;;;;25.51;56.18;101464.84;4987279;28;20517;-73
2021/06/03 09:21:07;;;;;;;;;;;;;;;24.88;57.45;101468.06;4983954;28;20062;-73
2021/06/03 09:23:33;;;;;;;6.22;4.65;;;;;;;25.13;58.11;101467.41;4988020;28;20004;-73
2021/06/03 09:26:04;;;;;;;8.40;4.57;;;;;;;25.47;59.02;101459.44;4984506;28;20052;-73
2021/06/03 09:28:32;;;;;;;10.68;4.93;;;;;;;25.45;56.50;101461.06;4987195;28;20522;-73
2021/06/03 09:31:12;;;;;;;9.00;4.78;;;;;;;25.48;56.43;101463.72;4986133;28;20034;-73
2021/06/03 09:34:00;;;;;;;6.97;4.90;;;;;;;25.62;58.78;101459.78;4986119;28;20096;-73
2021/06/03 09:36:32;;;;;;;8.95;4.57;;;;;;;25.82;58.23;101463.91;4986797;28;20543;-73
2021/06/03 09:39:39;;;;;;;11.13;4.95;;;;;;;25.95;56.95;101461.19;4988377;28;20069;-73
2021/06/03 09:42:06;;;;;;;7.70;4.32;;;;;;;25.99;57.20;101453.56;4974094;28;20398;-73
2021/06/03 09:44:40;;;;;;;7.82;4.60;;;;;;;26.00;56.24;101465.38;4986462;28;20104;-73
2021/06/03 09:47:10;;;;;;;9.80;4.85;;;;;;;26.08;55.92;101459.22;4985159;28;20030;-74
2021/06/03 09:49:54;;;;;;;6.38;4.35;;;;;;;25.94;57.37;101465.13;4988265;28;20113;-73
2021/06/03 09:52:33;;;;;;;6.25;4.40;;;;;;;25.79;55.14;101466.78;4986030;28;20034;-73
2021/06/03 09:55:01;;;;;;;6.25;4.65;;;;;;;25.84;54.98;101471.78;4987012;28;20039;-73
2021/06/03 09:57:45;;;;;;;7.25;4.75;;;;;;;25.93;55.27;101475.44;4979351;28;20027;-73
2021/06/03 10:00:21;;;;;;;7.47;4.40;;;;;;;25.80;55.24;101477.38;4984483;28;20042;-73
2021/06/03 10:02:53;;;;;;;8.45;4.85;;;;;;;25.59;55.12;101472.47;4986865;28;20042;-73
2021/06/03 10:05:22;;;;;;;6.15;4.57;;;;;;;25.27;55.75;101474.53;4988033;28;20029;-73
2021/06/03 10:07:55;;;;;;;7.50;4.30;;;;;;;25.05;58.52;101474.31;4977622;28;20042;-74
2021/06/03 10:10:23;;;;;;;9.90;4.85;;;;;;;25.40;57.39;101478.94;4983698;28;20510;-74
2021/06/03 10:12:50;;;;;;;6.03;4.18;;;;;;;25.47;56.76;101486.25;4982669;28;20038;-73
2021/06/03 10:15:19;;;;;;;6.55;4.55;;;;;;;25.17;56.54;101483.88;4984420;28;20038;-73
2021/06/03 10:17:50;;;;;;;8.77;4.70;;;;;;;25.29;58.97;101480.41;4979778;28;20045;-73
2021/06/03 10:20:23;;;;;;;10.57;4.50;;;;;;;25.37;57.35;101484.50;4984614;28;20030;-73
2021/06/03 10:22:52;;;;;;;12.38;4.40;;;;;;;25.21;56.62;101470.75;4986509;28;20034;-73
2021/06/03 10:25:18;;;;;;;5.85;4.43;;;;;;;25.47;57.55;101476.00;4987552;28;20033;-73
2021/06/03 10:27:46;;;;;;;5.72;4.30;;;;;;;25.25;58.38;101474.97;4988272;28;20026;-73
2021/06/03 10:30:23;;;;;;;9.40;4.70;;;;;;;25.36;58.54;101474.69;4986179;28;20038;-73
2021/06/03 10:32:50;;;;;;;6.10;4.32;;;;;;;25.55;58.82;101466.28;4974095;28;20490;-73
2021/06/03 10:35:28;;;;;;;7.05;4.15;;;;;;;25.43;57.38;101464.28;4983366;28;20031;-73
2021/06/03 10:37:54;;;;;;;5.95;4.35;;;;;;;25.44;56.14;101468.56;4977834;28;20716;-73
2021/06/03 10:40:23;;;;;;;15.55;4.72;;;;;;;25.56;56.75;101464.28;4987315;28;20049;-73
2021/06/03 10:42:50;;;;;;;5.75;4.38;;;;;;;25.46;57.22;101468.13;4981514;28;20042;-73
2021/06/03 10:45:18;;;;;;;6.07;4.50;;;;;;;25.29;58.33;101475.66;4984788;28;20402;-74
2021/06/03 10:47:44;;;;;;;5.47;4.60;;;;;;;25.54;58.16;101469.47;4981147;28;20041;-73
2021/06/03 10:50:17;;;;;;;6.28;4.20;;;;;;;25.04;58.48;101478.31;4977972;28;20543;-73
2021/06/03 10:52:44;;;;;;;6.85;4.47;;;;;;;25.03;58.98;101472.00;4987178;28;20034;-73
2021/06/03 10:55:23;;;;;;;12.48;4.70;;;;;;;25.30;59.56;101477.19;5003704;23;20133;-73
2021/06/03 10:58:15;;;;;;;7.90;4.78;;;;;;;25.50;59.18;101479.84;4997871;28;20382;-73
2021/06/03 11:00:43;;;;;;;10.65;4.35;;;;;;;25.76;59.84;101470.44;5006587;28;20099;-73
2021/06/03 11:03:16;;;;;;;10.60;4.53;;;;;;;25.85;59.48;101465.81;5001983;28;20041;-72
2021/06/03 11:05:44;;;;;;;8.73;4.60;;;;;;;25.88;57.97;101472.41;4985024;28;20143;-72
2021/06/03 11:08:30;;;;;;;5.95;4.30;;;;;;;25.77;56.65;101471.97;4994631;28;20019;-72
2021/06/03 11:11:18;;;;;;;12.52;4.55;;;;;;;25.73;58.02;101488.63;4999511;28;20402;-73
2021/06/03 11:13:47;;;;;;;7.45;4.45;;;;;;;25.65;57.92;101481.75;4990673;28;20081;-73
2021/06/03 11:16:34;;;;;;;7.38;4.82;;;;;;;25.79;60.78;101491.63;5005586;28;20041;-73
2021/06/03 11:19:00;;;;;;;6.13;4.28;;;;;;;25.30;60.09;101484.72;4998843;28;20753;-73
2021/06/03 11:21:32;;;;;;;5.00;4.13;;;;;;;25.54;59.54;101484.06;4999949;28;20064;-72
2021/06/03 11:24:08;;;;;;;10.00;4.35;;;;;;;25.73;59.39;101490.63;5008246;28;20077;-72
2021/06/03 11:26:43;;;;;;;5.65;3.75;;;;;;;25.84;57.26;101491.84;5011257;28;20120;-73
2021/06/03 11:29:11;;;;;;;6.25;4.18;;;;;;;25.69;53.97;101500.97;5006236;28;20125;-72
2021/06/03 11:32:00;;;;;;;4.70;3.72;;;;;;;25.62;52.66;101498.44;5002591;28;20034;-72
2021/06/03 11:34:25;;;;;;;4.55;3.72;;;;;;;25.81;52.22;101503.00;5005913;28;20445;-72
2021/06/03 11:37:00;;;;;;;5.22;4.10;;;;;;;25.38;52.05;101500.63;5001009;28;20038;-72